Main page
METAR-TAF:

METAR-TAF

Airports :

Keetmanshoop, Namibia

Keetmanshoop Airport

latitude: 26-32S, longitude: 018-07E, elevation: 1067 m

Current weather observation

The report was made 48 minutes ago, at 01:00 UTC
Calm wind
Temperature 20°C
Humidity 32%
Pressure 1019 hPa

METAR: FYKT 210100Z AUTO 00000KT //// 20/03 Q1019

Time: 02:48 (01:48 UTC)

Forecast

The report was made 9 hours and 48 minutes ago, at 16:00 UTC
Forecast valid from 20 at 18 UTC to 21 at 18 UTC
Wind 6 kt from the Southwest
Visibility 10 km or more
no clouds below 1500 m and no cumulonimbus

TAF: FYKT 201600Z 2018/2118 22006KT CAVOK

Weather observations and forecasts of more than 4000 airports (METAR and TAF reports).

The available stations are represented by yellow and red dots on the map.

Hover mouse over dot to see the name of the station.

Then click to see weather observations and forecasts.

To change the map : click on the green buttons with a black cross to zoom in, on the green button with a dash to zoom out, or on the green arrows for adjacent maps.


METAR-TAF: